ARG1885 SAWH-SAEZ
Flight info
| Callsign | ARG1885 |
|---|---|
| Flight time | 2h 53m |
| Altitude | 35000 |
| Route | GRA2A GRA UT662 VUPNI/N0464F370 UT662 DIL UZ117 GBE GBE7X |
| Aircraft | B738/M-SDE2E3FGHIRWXY/LB1 |
Departure
| Time | 2026-04-28 20:33 |
|---|---|
| Airport | Ushuaia - Malvinas Argentinas International Airport (SAWH) |
Arrival
| Time | 2026-04-28 23:26 |
|---|---|
| Airport | Ezeiza International Airport - Ministro Pistarini (SAEZ) |
| Time | Latitude | Longitude | Altitude | Speed | Heading |
|---|---|---|---|---|---|
| 2026-04-28 20:13 | -54.84027 | -68.31176 | 109 ft | 0 kts | 349° |
| 2026-04-28 20:24 | -54.84034 | -68.31174 | 86 ft | 4 kts | 349° |
| 2026-04-28 20:24 | -54.84060 | -68.31165 | 89 ft | 4 kts | 346° |
| 2026-04-28 20:24 | -54.84085 | -68.31149 | 81 ft | 4 kts | 318° |
| 2026-04-28 20:25 | -54.84093 | -68.31120 | 85 ft | 4 kts | 268° |
| 2026-04-28 20:25 | -54.84093 | -68.31099 | 83 ft | 0 kts | 269° |
| 2026-04-28 20:28 | -54.84093 | -68.31115 | 83 ft | 7 kts | 269° |
| 2026-04-28 20:28 | -54.84096 | -68.31245 | 81 ft | 12 kts | 267° |
| 2026-04-28 20:28 | -54.84143 | -68.31332 | 83 ft | 11 kts | 181° |
| 2026-04-28 20:28 | -54.84220 | -68.31325 | 81 ft | 11 kts | 177° |
| 2026-04-28 20:29 | -54.84294 | -68.31318 | 85 ft | 11 kts | 177° |
| 2026-04-28 20:29 | -54.84366 | -68.31312 | 87 ft | 10 kts | 180° |
| 2026-04-28 20:29 | -54.84403 | -68.31409 | 72 ft | 11 kts | 264° |
| 2026-04-28 20:29 | -54.84403 | -68.31539 | 62 ft | 14 kts | 280° |
| 2026-04-28 20:30 | -54.84374 | -68.31675 | 69 ft | 9 kts | 266° |
| 2026-04-28 20:30 | -54.84410 | -68.31676 | 55 ft | 6 kts | 115° |
| 2026-04-28 20:30 | -54.84411 | -68.31647 | 38 ft | 0 kts | 84° |
| 2026-04-28 20:32 | -54.84411 | -68.31634 | 55 ft | 6 kts | 87° |
| 2026-04-28 20:32 | -54.84399 | -68.31306 | 59 ft | 60 kts | 86° |
| 2026-04-28 20:32 | -54.84353 | -68.30161 | 79 ft | 128 kts | 85° |
| 2026-04-28 20:33 | -54.84287 | -68.28313 | 179 ft | 171 kts | 89° |
| 2026-04-28 20:33 | -54.84213 | -68.26250 | 854 ft | 174 kts | 84° |
| 2026-04-28 20:33 | -54.84232 | -68.24134 | 1494 ft | 183 kts | 107° |
| 2026-04-28 20:33 | -54.85001 | -68.22196 | 1892 ft | 206 kts | 129° |
| 2026-04-28 20:34 | -54.85575 | -68.19895 | 2353 ft | 214 kts | 100° |
| 2026-04-28 20:34 | -54.85939 | -68.17246 | 2587 ft | 237 kts | 103° |
| 2026-04-28 20:34 | -54.86382 | -68.14407 | 3010 ft | 251 kts | 103° |
| 2026-04-28 20:34 | -54.86877 | -68.11363 | 3319 ft | 270 kts | 104° |
| 2026-04-28 20:35 | -54.87409 | -68.08166 | 3974 ft | 280 kts | 104° |
| 2026-04-28 20:35 | -54.87960 | -68.04903 | 4809 ft | 283 kts | 104° |
| 2026-04-28 20:35 | -54.88524 | -68.01592 | 5631 ft | 288 kts | 105° |
| 2026-04-28 20:35 | -54.89099 | -67.98231 | 6403 ft | 292 kts | 105° |
| 2026-04-28 20:36 | -54.89678 | -67.94843 | 7241 ft | 293 kts | 105° |
| 2026-04-28 20:36 | -54.90259 | -67.91432 | 8055 ft | 296 kts | 106° |
| 2026-04-28 20:36 | -54.90767 | -67.87946 | 8854 ft | 299 kts | 94° |
| 2026-04-28 20:36 | -54.90554 | -67.84373 | 9559 ft | 301 kts | 71° |
| 2026-04-28 20:37 | -54.89648 | -67.81004 | 9834 ft | 319 kts | 53° |
| 2026-04-28 20:37 | -54.88090 | -67.78155 | 10010 ft | 335 kts | 31° |
| 2026-04-28 20:37 | -54.86044 | -67.75988 | 10203 ft | 355 kts | 28° |
| 2026-04-28 20:37 | -54.83804 | -67.73937 | 10349 ft | 372 kts | 17° |
| 2026-04-28 20:38 | -54.81224 | -67.73316 | 10622 ft | 380 kts | 356° |
| 2026-04-28 20:38 | -54.78557 | -67.73424 | 11164 ft | 385 kts | 356° |
| 2026-04-28 20:38 | -54.75876 | -67.73521 | 11896 ft | 386 kts | 356° |
| 2026-04-28 20:38 | -54.73175 | -67.73605 | 12531 ft | 391 kts | 357° |
| 2026-04-28 20:39 | -54.70435 | -67.73674 | 13108 ft | 396 kts | 357° |
| 2026-04-28 20:39 | -54.67661 | -67.73724 | 13667 ft | 400 kts | 357° |
| 2026-04-28 20:39 | -54.64875 | -67.73762 | 14287 ft | 401 kts | 357° |
| 2026-04-28 20:39 | -54.62076 | -67.73793 | 14898 ft | 403 kts | 357° |
| 2026-04-28 20:40 | -54.59268 | -67.73822 | 15468 ft | 406 kts | 357° |
| 2026-04-28 20:40 | -54.56433 | -67.73850 | 16014 ft | 409 kts | 357° |
| 2026-04-28 20:40 | -54.53584 | -67.73878 | 16562 ft | 411 kts | 357° |
| 2026-04-28 20:40 | -54.50706 | -67.73906 | 17109 ft | 414 kts | 357° |
| 2026-04-28 20:41 | -54.47816 | -67.73934 | 17525 ft | 419 kts | 357° |
| 2026-04-28 20:41 | -54.44882 | -67.73963 | 17932 ft | 423 kts | 356° |
| 2026-04-28 20:41 | -54.41937 | -67.73992 | 18389 ft | 425 kts | 356° |
| 2026-04-28 20:41 | -54.39010 | -67.74019 | 18818 ft | 427 kts | 356° |
| 2026-04-28 20:42 | -54.35995 | -67.74048 | 19234 ft | 430 kts | 356° |
| 2026-04-28 20:42 | -54.33028 | -67.74077 | 19635 ft | 433 kts | 356° |
| 2026-04-28 20:42 | -54.30008 | -67.74106 | 20037 ft | 436 kts | 356° |
| 2026-04-28 20:42 | -54.26965 | -67.74135 | 20432 ft | 438 kts | 356° |
| 2026-04-28 20:43 | -54.23868 | -67.74165 | 20817 ft | 441 kts | 356° |
| 2026-04-28 20:43 | -54.20829 | -67.74194 | 21133 ft | 444 kts | 355° |
| 2026-04-28 20:43 | -54.17722 | -67.74224 | 21461 ft | 447 kts | 355° |
| 2026-04-28 20:43 | -54.14605 | -67.74255 | 21801 ft | 450 kts | 355° |
| 2026-04-28 20:44 | -54.11456 | -67.74284 | 22125 ft | 453 kts | 355° |
| 2026-04-28 20:44 | -54.08299 | -67.74314 | 22436 ft | 456 kts | 355° |
| 2026-04-28 20:44 | -54.05117 | -67.74344 | 22749 ft | 459 kts | 355° |
| 2026-04-28 20:44 | -54.01908 | -67.74374 | 23046 ft | 461 kts | 355° |
| 2026-04-28 20:45 | -53.98705 | -67.74403 | 23385 ft | 461 kts | 355° |
| 2026-04-28 20:45 | -53.95493 | -67.74432 | 23765 ft | 460 kts | 355° |
| 2026-04-28 20:45 | -53.92292 | -67.74461 | 24102 ft | 460 kts | 355° |
| 2026-04-28 20:45 | -53.89086 | -67.74491 | 24406 ft | 461 kts | 355° |
| 2026-04-28 20:46 | -53.85881 | -67.74522 | 24694 ft | 462 kts | 355° |
| 2026-04-28 20:46 | -53.82665 | -67.74552 | 25033 ft | 461 kts | 355° |
| 2026-04-28 20:46 | -53.79471 | -67.74504 | 25470 ft | 460 kts | 359° |
| 2026-04-28 20:46 | -53.76320 | -67.73426 | 25928 ft | 467 kts | 14° |
| 2026-04-28 20:47 | -53.73351 | -67.71109 | 26444 ft | 470 kts | 22° |
| 2026-04-28 20:47 | -53.70496 | -67.68458 | 26928 ft | 468 kts | 23° |
| 2026-04-28 20:47 | -53.67659 | -67.65763 | 27301 ft | 467 kts | 23° |
| 2026-04-28 20:47 | -53.64842 | -67.63090 | 27725 ft | 463 kts | 24° |
| 2026-04-28 20:48 | -53.62027 | -67.60445 | 28021 ft | 464 kts | 23° |
| 2026-04-28 20:48 | -53.59194 | -67.57817 | 28264 ft | 465 kts | 23° |
| 2026-04-28 20:48 | -53.56357 | -67.55210 | 28690 ft | 463 kts | 22° |
| 2026-04-28 20:48 | -53.53541 | -67.52635 | 29198 ft | 458 kts | 22° |
| 2026-04-28 20:49 | -53.50753 | -67.50096 | 29634 ft | 454 kts | 22° |
| 2026-04-28 20:49 | -53.47974 | -67.47573 | 29910 ft | 455 kts | 22° |
| 2026-04-28 20:49 | -53.45185 | -67.45049 | 30094 ft | 456 kts | 22° |
| 2026-04-28 20:49 | -53.42391 | -67.42523 | 30342 ft | 457 kts | 22° |
| 2026-04-28 20:50 | -53.39595 | -67.39996 | 30645 ft | 455 kts | 22° |
| 2026-04-28 20:50 | -53.36809 | -67.37480 | 30942 ft | 454 kts | 22° |
| 2026-04-28 20:50 | -53.34027 | -67.34970 | 31184 ft | 454 kts | 22° |
| 2026-04-28 20:51 | -53.29374 | -67.30788 | 31357 ft | 459 kts | 22° |
| 2026-04-28 20:51 | -53.25613 | -67.27410 | 31717 ft | 458 kts | 22° |
| 2026-04-28 20:51 | -53.22810 | -67.24894 | 32040 ft | 456 kts | 22° |
| 2026-04-28 20:51 | -53.20961 | -67.23236 | 32229 ft | 456 kts | 21° |
| 2026-04-28 20:52 | -53.18162 | -67.20733 | 32455 ft | 456 kts | 21° |
| 2026-04-28 20:52 | -53.14417 | -67.17391 | 32758 ft | 457 kts | 21° |
| 2026-04-28 20:52 | -53.12566 | -67.15741 | 32926 ft | 456 kts | 21° |
| 2026-04-28 20:52 | -53.09767 | -67.13248 | 33195 ft | 456 kts | 21° |
| 2026-04-28 20:53 | -53.04176 | -67.08282 | 33557 ft | 456 kts | 21° |
| 2026-04-28 20:53 | -53.01368 | -67.05794 | 33687 ft | 457 kts | 21° |
| 2026-04-28 20:53 | -52.98571 | -67.03317 | 33921 ft | 455 kts | 21° |
| 2026-04-28 20:54 | -52.95779 | -67.00849 | 34118 ft | 455 kts | 21° |
| 2026-04-28 20:54 | -52.92979 | -66.98379 | 34229 ft | 457 kts | 21° |
| 2026-04-28 20:54 | -52.87352 | -66.93423 | 34238 ft | 458 kts | 21° |
| 2026-04-28 20:55 | -52.81740 | -66.88490 | 34239 ft | 456 kts | 21° |
| 2026-04-28 20:55 | -52.76156 | -66.83578 | 34235 ft | 454 kts | 21° |
| 2026-04-28 20:56 | -52.70585 | -66.78686 | 34212 ft | 453 kts | 21° |
| 2026-04-28 20:56 | -52.65042 | -66.73831 | 34220 ft | 451 kts | 21° |
| 2026-04-28 20:57 | -52.59509 | -66.69003 | 34238 ft | 450 kts | 21° |
| 2026-04-28 20:57 | -52.53980 | -66.64193 | 34236 ft | 449 kts | 21° |
| 2026-04-28 20:58 | -52.48457 | -66.59401 | 34237 ft | 449 kts | 21° |
| 2026-04-28 20:58 | -52.42920 | -66.54611 | 34240 ft | 450 kts | 21° |
| 2026-04-28 20:59 | -52.37382 | -66.49833 | 34224 ft | 450 kts | 21° |
| 2026-04-28 20:59 | -52.31845 | -66.45069 | 34232 ft | 450 kts | 21° |
| 2026-04-28 21:00 | -52.26342 | -66.40344 | 34243 ft | 450 kts | 21° |
| 2026-04-28 21:00 | -52.20801 | -66.35605 | 34243 ft | 450 kts | 21° |
| 2026-04-28 21:01 | -52.15256 | -66.30877 | 34244 ft | 450 kts | 21° |
| 2026-04-28 21:01 | -52.09706 | -66.26156 | 34209 ft | 450 kts | 21° |
| 2026-04-28 21:02 | -52.04166 | -66.21456 | 34233 ft | 449 kts | 21° |
| 2026-04-28 21:02 | -51.98632 | -66.16774 | 34247 ft | 448 kts | 21° |
| 2026-04-28 21:03 | -51.93097 | -66.12104 | 34246 ft | 448 kts | 21° |
| 2026-04-28 21:03 | -51.87563 | -66.07448 | 34246 ft | 448 kts | 21° |
| 2026-04-28 21:04 | -51.82023 | -66.02799 | 34248 ft | 448 kts | 21° |
| 2026-04-28 21:04 | -51.76429 | -65.98457 | 34257 ft | 443 kts | 15° |
| 2026-04-28 21:05 | -51.70667 | -65.94998 | 34250 ft | 441 kts | 14° |
| 2026-04-28 21:05 | -51.64891 | -65.91653 | 34259 ft | 441 kts | 14° |
| 2026-04-28 21:06 | -51.59120 | -65.88259 | 34255 ft | 442 kts | 14° |
| 2026-04-28 21:06 | -51.53356 | -65.84829 | 34255 ft | 442 kts | 14° |
| 2026-04-28 21:07 | -51.47591 | -65.81391 | 34257 ft | 442 kts | 14° |
| 2026-04-28 21:07 | -51.41826 | -65.77959 | 34252 ft | 442 kts | 14° |
| 2026-04-28 21:08 | -51.36060 | -65.74539 | 34259 ft | 442 kts | 14° |
| 2026-04-28 21:08 | -51.30331 | -65.71149 | 34257 ft | 442 kts | 14° |
| 2026-04-28 21:09 | -51.24524 | -65.67724 | 34257 ft | 442 kts | 14° |
| 2026-04-28 21:09 | -51.18793 | -65.64352 | 34258 ft | 442 kts | 14° |
| 2026-04-28 21:10 | -51.13023 | -65.60967 | 34254 ft | 442 kts | 14° |
| 2026-04-28 21:10 | -51.07254 | -65.57589 | 34245 ft | 441 kts | 14° |
| 2026-04-28 21:11 | -51.01501 | -65.54231 | 34252 ft | 440 kts | 14° |
| 2026-04-28 21:11 | -50.95745 | -65.50881 | 34257 ft | 440 kts | 14° |
| 2026-04-28 21:12 | -50.89995 | -65.47543 | 34253 ft | 440 kts | 14° |
| 2026-04-28 21:12 | -50.84248 | -65.44215 | 34252 ft | 440 kts | 14° |
| 2026-04-28 21:13 | -50.78499 | -65.40895 | 34255 ft | 440 kts | 14° |
| 2026-04-28 21:13 | -50.72746 | -65.37581 | 34249 ft | 440 kts | 14° |
| 2026-04-28 21:14 | -50.66995 | -65.34277 | 34255 ft | 440 kts | 14° |
| 2026-04-28 21:14 | -50.61237 | -65.30978 | 34259 ft | 440 kts | 14° |
| 2026-04-28 21:15 | -50.55478 | -65.27688 | 34263 ft | 441 kts | 14° |
| 2026-04-28 21:15 | -50.49713 | -65.24401 | 34261 ft | 440 kts | 14° |
| 2026-04-28 21:16 | -50.43954 | -65.21126 | 34260 ft | 440 kts | 14° |
| 2026-04-28 21:16 | -50.38193 | -65.17858 | 34262 ft | 440 kts | 13° |
| 2026-04-28 21:17 | -50.32430 | -65.14600 | 34262 ft | 441 kts | 13° |
| 2026-04-28 21:17 | -50.26659 | -65.11344 | 34270 ft | 441 kts | 13° |
| 2026-04-28 21:18 | -50.20880 | -65.08092 | 34270 ft | 441 kts | 13° |
| 2026-04-28 21:18 | -50.15106 | -65.04851 | 34274 ft | 441 kts | 13° |
| 2026-04-28 21:19 | -50.09332 | -65.01619 | 34271 ft | 441 kts | 13° |
| 2026-04-28 21:19 | -50.03552 | -64.98391 | 34266 ft | 441 kts | 13° |
| 2026-04-28 21:20 | -49.97765 | -64.95169 | 34272 ft | 442 kts | 13° |
| 2026-04-28 21:20 | -49.91982 | -64.91956 | 34275 ft | 442 kts | 13° |
| 2026-04-28 21:21 | -49.86195 | -64.88749 | 34283 ft | 442 kts | 13° |
| 2026-04-28 21:21 | -49.80399 | -64.85546 | 34282 ft | 442 kts | 13° |
| 2026-04-28 21:22 | -49.74606 | -64.82352 | 34255 ft | 442 kts | 13° |
| 2026-04-28 21:22 | -49.69795 | -64.79705 | 34279 ft | 442 kts | 13° |
| 2026-04-28 21:23 | -49.63025 | -64.75992 | 34279 ft | 442 kts | 13° |
| 2026-04-28 21:23 | -49.57231 | -64.72822 | 34305 ft | 442 kts | 13° |
| 2026-04-28 21:24 | -49.51430 | -64.69656 | 34289 ft | 442 kts | 13° |
| 2026-04-28 21:24 | -49.45669 | -64.66520 | 34298 ft | 442 kts | 13° |
| 2026-04-28 21:25 | -49.39868 | -64.63371 | 34282 ft | 442 kts | 12° |
| 2026-04-28 21:25 | -49.34067 | -64.60228 | 34301 ft | 443 kts | 12° |
| 2026-04-28 21:26 | -49.28252 | -64.57087 | 34303 ft | 443 kts | 12° |
| 2026-04-28 21:26 | -49.22427 | -64.53948 | 34314 ft | 444 kts | 12° |
| 2026-04-28 21:27 | -49.16596 | -64.50813 | 34311 ft | 444 kts | 12° |
| 2026-04-28 21:27 | -49.10762 | -64.47684 | 34310 ft | 444 kts | 12° |
| 2026-04-28 21:28 | -49.04932 | -64.44565 | 34316 ft | 444 kts | 12° |
| 2026-04-28 21:28 | -48.99093 | -64.41450 | 34320 ft | 445 kts | 12° |
| 2026-04-28 21:29 | -48.93244 | -64.38337 | 34329 ft | 446 kts | 12° |
| 2026-04-28 21:29 | -48.87379 | -64.35223 | 34318 ft | 446 kts | 12° |
| 2026-04-28 21:30 | -48.81524 | -64.32121 | 34331 ft | 445 kts | 12° |
| 2026-04-28 21:30 | -48.75673 | -64.29030 | 34306 ft | 445 kts | 12° |
| 2026-04-28 21:31 | -48.69860 | -64.25966 | 34327 ft | 446 kts | 12° |
| 2026-04-28 21:31 | -48.63999 | -64.22886 | 34347 ft | 447 kts | 12° |
| 2026-04-28 21:32 | -48.58118 | -64.19802 | 34346 ft | 447 kts | 12° |
| 2026-04-28 21:32 | -48.52239 | -64.16725 | 34340 ft | 447 kts | 12° |
| 2026-04-28 21:33 | -48.46363 | -64.13659 | 34333 ft | 447 kts | 12° |
| 2026-04-28 21:33 | -48.40484 | -64.10598 | 34354 ft | 448 kts | 12° |
| 2026-04-28 21:34 | -48.34558 | -64.07523 | 34357 ft | 453 kts | 12° |
| 2026-04-28 21:34 | -48.28634 | -64.04448 | 34346 ft | 447 kts | 12° |
| 2026-04-28 21:35 | -48.22790 | -64.01426 | 34355 ft | 443 kts | 12° |
| 2026-04-28 21:35 | -48.16958 | -63.98424 | 34362 ft | 442 kts | 12° |
| 2026-04-28 21:36 | -48.11141 | -63.95434 | 34368 ft | 442 kts | 12° |
| 2026-04-28 21:36 | -48.05277 | -63.92431 | 34525 ft | 448 kts | 12° |
| 2026-04-28 21:37 | -48.02326 | -63.90920 | 34709 ft | 448 kts | 12° |
| 2026-04-28 21:37 | -47.99378 | -63.89411 | 34899 ft | 448 kts | 12° |
| 2026-04-28 21:37 | -47.96422 | -63.87899 | 35045 ft | 449 kts | 12° |
| 2026-04-28 21:37 | -47.93503 | -63.86410 | 35186 ft | 450 kts | 12° |
| 2026-04-28 21:38 | -47.90534 | -63.84896 | 35344 ft | 451 kts | 12° |
| 2026-04-28 21:38 | -47.87569 | -63.83386 | 35517 ft | 451 kts | 12° |
| 2026-04-28 21:38 | -47.84593 | -63.81872 | 35660 ft | 452 kts | 12° |
| 2026-04-28 21:38 | -47.81612 | -63.80359 | 35779 ft | 453 kts | 13° |
| 2026-04-28 21:39 | -47.75624 | -63.77325 | 36007 ft | 456 kts | 13° |
| 2026-04-28 21:39 | -47.72623 | -63.75805 | 36193 ft | 455 kts | 13° |
| 2026-04-28 21:39 | -47.69623 | -63.74288 | 36331 ft | 455 kts | 13° |
| 2026-04-28 21:40 | -47.63597 | -63.71249 | 36376 ft | 459 kts | 13° |
| 2026-04-28 21:40 | -47.58533 | -63.68699 | 36377 ft | 458 kts | 13° |
| 2026-04-28 21:41 | -47.52502 | -63.65668 | 36372 ft | 457 kts | 13° |
| 2026-04-28 21:41 | -47.46486 | -63.62653 | 36380 ft | 456 kts | 13° |
| 2026-04-28 21:42 | -47.40517 | -63.59669 | 36383 ft | 456 kts | 13° |
| 2026-04-28 21:42 | -47.34506 | -63.56673 | 36390 ft | 456 kts | 13° |
| 2026-04-28 21:43 | -47.28486 | -63.53679 | 36396 ft | 457 kts | 13° |
| 2026-04-28 21:43 | -47.22457 | -63.50688 | 36397 ft | 457 kts | 12° |
| 2026-04-28 21:44 | -47.16423 | -63.47702 | 36400 ft | 458 kts | 12° |
| 2026-04-28 21:44 | -47.10378 | -63.44716 | 36400 ft | 459 kts | 12° |
| 2026-04-28 21:45 | -47.04319 | -63.41731 | 36408 ft | 460 kts | 12° |
| 2026-04-28 21:45 | -46.98244 | -63.38746 | 36403 ft | 461 kts | 12° |
| 2026-04-28 21:46 | -46.92155 | -63.35760 | 36414 ft | 461 kts | 12° |
| 2026-04-28 21:46 | -46.86063 | -63.32781 | 36404 ft | 462 kts | 12° |
| 2026-04-28 21:47 | -46.79971 | -63.29808 | 36418 ft | 462 kts | 12° |
| 2026-04-28 21:47 | -46.73866 | -63.26836 | 36408 ft | 462 kts | 12° |
| 2026-04-28 21:48 | -46.67763 | -63.23872 | 36425 ft | 462 kts | 12° |
| 2026-04-28 21:48 | -46.61657 | -63.20913 | 36420 ft | 462 kts | 12° |
| 2026-04-28 21:49 | -46.55557 | -63.17966 | 36423 ft | 462 kts | 12° |
| 2026-04-28 21:49 | -46.49495 | -63.15042 | 36420 ft | 462 kts | 12° |
| 2026-04-28 21:50 | -46.43399 | -63.12110 | 36438 ft | 461 kts | 12° |
| 2026-04-28 21:50 | -46.37305 | -63.09185 | 36438 ft | 461 kts | 12° |
| 2026-04-28 21:51 | -46.31211 | -63.06268 | 36444 ft | 461 kts | 12° |
| 2026-04-28 21:51 | -46.25120 | -63.03359 | 36437 ft | 461 kts | 12° |
| 2026-04-28 21:52 | -46.19033 | -63.00458 | 36450 ft | 460 kts | 12° |
| 2026-04-28 21:52 | -46.12949 | -62.97565 | 36448 ft | 460 kts | 12° |
| 2026-04-28 21:53 | -46.06861 | -62.94678 | 36461 ft | 460 kts | 12° |
| 2026-04-28 21:53 | -46.00736 | -62.91779 | 36457 ft | 460 kts | 12° |
| 2026-04-28 21:54 | -45.94655 | -62.88909 | 36462 ft | 459 kts | 12° |
| 2026-04-28 21:54 | -45.88578 | -62.86046 | 36463 ft | 460 kts | 12° |
| 2026-04-28 21:55 | -45.82542 | -62.83210 | 36477 ft | 460 kts | 11° |
| 2026-04-28 21:55 | -45.76461 | -62.80359 | 36474 ft | 460 kts | 11° |
| 2026-04-28 21:56 | -45.70373 | -62.77511 | 36475 ft | 460 kts | 11° |
| 2026-04-28 21:56 | -45.64285 | -62.74670 | 36476 ft | 460 kts | 11° |
| 2026-04-28 21:57 | -45.58194 | -62.71833 | 36496 ft | 461 kts | 11° |
| 2026-04-28 21:57 | -45.52088 | -62.68997 | 36491 ft | 462 kts | 11° |
| 2026-04-28 21:58 | -45.45974 | -62.66163 | 36490 ft | 462 kts | 11° |
| 2026-04-28 21:58 | -45.39854 | -62.63332 | 36479 ft | 463 kts | 11° |
| 2026-04-28 21:59 | -45.33720 | -62.60502 | 36495 ft | 464 kts | 11° |
| 2026-04-28 22:00 | -45.24494 | -62.56257 | 36510 ft | 465 kts | 11° |
| 2026-04-28 22:00 | -45.18337 | -62.53431 | 36499 ft | 465 kts | 11° |
| 2026-04-28 22:01 | -45.12177 | -62.50611 | 36510 ft | 465 kts | 11° |
| 2026-04-28 22:01 | -45.06017 | -62.47796 | 36506 ft | 465 kts | 11° |
| 2026-04-28 22:02 | -44.99853 | -62.44988 | 36514 ft | 465 kts | 11° |
| 2026-04-28 22:02 | -44.93703 | -62.42197 | 36506 ft | 464 kts | 11° |
| 2026-04-28 22:03 | -44.87557 | -62.39415 | 36515 ft | 463 kts | 11° |
| 2026-04-28 22:03 | -44.81420 | -62.36643 | 36492 ft | 463 kts | 11° |
| 2026-04-28 22:04 | -44.75288 | -62.33878 | 36499 ft | 463 kts | 11° |
| 2026-04-28 22:04 | -44.69151 | -62.31117 | 36525 ft | 463 kts | 11° |
| 2026-04-28 22:05 | -44.63018 | -62.28364 | 36522 ft | 463 kts | 11° |
| 2026-04-28 22:05 | -44.56872 | -62.25611 | 36526 ft | 464 kts | 11° |
| 2026-04-28 22:06 | -44.50723 | -62.22863 | 36491 ft | 464 kts | 11° |
| 2026-04-28 22:06 | -44.44570 | -62.20119 | 36522 ft | 465 kts | 11° |
| 2026-04-28 22:07 | -44.38406 | -62.17377 | 36537 ft | 465 kts | 11° |
| 2026-04-28 22:07 | -44.32268 | -62.14652 | 36540 ft | 466 kts | 11° |
| 2026-04-28 22:08 | -44.26080 | -62.11910 | 36522 ft | 467 kts | 11° |
| 2026-04-28 22:08 | -44.19887 | -62.09172 | 36538 ft | 467 kts | 11° |
| 2026-04-28 22:09 | -44.13685 | -62.06437 | 36551 ft | 468 kts | 11° |
| 2026-04-28 22:09 | -44.07476 | -62.03705 | 36551 ft | 469 kts | 11° |
| 2026-04-28 22:10 | -44.01250 | -62.00971 | 36538 ft | 469 kts | 11° |
| 2026-04-28 22:10 | -43.95029 | -61.98245 | 36537 ft | 469 kts | 11° |
| 2026-04-28 22:11 | -43.88797 | -61.95520 | 36566 ft | 470 kts | 11° |
| 2026-04-28 22:11 | -43.82558 | -61.92799 | 36562 ft | 471 kts | 10° |
| 2026-04-28 22:12 | -43.76305 | -61.90077 | 36557 ft | 471 kts | 11° |
| 2026-04-28 22:12 | -43.70047 | -61.87359 | 36563 ft | 471 kts | 10° |
| 2026-04-28 22:13 | -43.63789 | -61.84647 | 36570 ft | 472 kts | 10° |
| 2026-04-28 22:13 | -43.57518 | -61.81935 | 36579 ft | 473 kts | 10° |
| 2026-04-28 22:14 | -43.51240 | -61.79227 | 36571 ft | 473 kts | 10° |
| 2026-04-28 22:14 | -43.44958 | -61.76522 | 36586 ft | 473 kts | 10° |
| 2026-04-28 22:15 | -43.38669 | -61.73820 | 36575 ft | 474 kts | 10° |
| 2026-04-28 22:15 | -43.32369 | -61.71119 | 36575 ft | 474 kts | 10° |
| 2026-04-28 22:16 | -43.26066 | -61.68423 | 36600 ft | 475 kts | 10° |
| 2026-04-28 22:16 | -43.19756 | -61.65730 | 36600 ft | 475 kts | 10° |
| 2026-04-28 22:17 | -43.13437 | -61.63038 | 36583 ft | 476 kts | 10° |
| 2026-04-28 22:17 | -43.07099 | -61.60344 | 36603 ft | 477 kts | 10° |
| 2026-04-28 22:18 | -43.00758 | -61.57654 | 36612 ft | 478 kts | 10° |
| 2026-04-28 22:18 | -42.94396 | -61.54962 | 36610 ft | 479 kts | 10° |
| 2026-04-28 22:19 | -42.88072 | -61.52291 | 36604 ft | 479 kts | 10° |
| 2026-04-28 22:19 | -42.81652 | -61.49583 | 36625 ft | 480 kts | 10° |
| 2026-04-28 22:20 | -42.75265 | -61.46895 | 36614 ft | 481 kts | 10° |
| 2026-04-28 22:20 | -42.68865 | -61.44206 | 36625 ft | 482 kts | 10° |
| 2026-04-28 22:21 | -42.62494 | -61.41536 | 36616 ft | 482 kts | 10° |
| 2026-04-28 22:21 | -42.56075 | -61.38851 | 36622 ft | 483 kts | 10° |
| 2026-04-28 22:22 | -42.49652 | -61.36171 | 36644 ft | 484 kts | 10° |
| 2026-04-28 22:22 | -42.43217 | -61.33491 | 36638 ft | 484 kts | 10° |
| 2026-04-28 22:23 | -42.36722 | -61.30792 | 36636 ft | 485 kts | 10° |
| 2026-04-28 22:23 | -42.30272 | -61.28117 | 36653 ft | 485 kts | 10° |
| 2026-04-28 22:24 | -42.24901 | -61.25894 | 36648 ft | 485 kts | 10° |
| 2026-04-28 22:24 | -42.18443 | -61.23227 | 36630 ft | 485 kts | 10° |
| 2026-04-28 22:25 | -42.10943 | -61.20136 | 36650 ft | 485 kts | 10° |
| 2026-04-28 22:25 | -42.05536 | -61.17912 | 36648 ft | 485 kts | 10° |
| 2026-04-28 22:26 | -41.99077 | -61.15262 | 36662 ft | 485 kts | 10° |
| 2026-04-28 22:26 | -41.92618 | -61.12617 | 36658 ft | 485 kts | 9° |
| 2026-04-28 22:27 | -41.86162 | -61.09979 | 36664 ft | 486 kts | 9° |
| 2026-04-28 22:27 | -41.79691 | -61.07341 | 36657 ft | 486 kts | 10° |
| 2026-04-28 22:28 | -41.73210 | -61.04704 | 36670 ft | 487 kts | 9° |
| 2026-04-28 22:28 | -41.66716 | -61.02067 | 36679 ft | 488 kts | 9° |
| 2026-04-28 22:29 | -41.60206 | -60.99429 | 36686 ft | 489 kts | 9° |
| 2026-04-28 22:29 | -41.53684 | -60.96793 | 36658 ft | 491 kts | 10° |
| 2026-04-28 22:30 | -41.47137 | -60.94150 | 36685 ft | 492 kts | 10° |
| 2026-04-28 22:30 | -41.40579 | -60.91510 | 36693 ft | 493 kts | 10° |
| 2026-04-28 22:31 | -41.34014 | -60.88872 | 36695 ft | 494 kts | 10° |
| 2026-04-28 22:31 | -41.27427 | -60.86231 | 36695 ft | 495 kts | 10° |
| 2026-04-28 22:32 | -41.20829 | -60.83590 | 36705 ft | 496 kts | 10° |
| 2026-04-28 22:32 | -41.14263 | -60.80969 | 36705 ft | 497 kts | 10° |
| 2026-04-28 22:33 | -41.07637 | -60.78329 | 36706 ft | 497 kts | 10° |
| 2026-04-28 22:33 | -41.01008 | -60.75692 | 36702 ft | 497 kts | 10° |
| 2026-04-28 22:34 | -40.94372 | -60.73065 | 36711 ft | 498 kts | 10° |
| 2026-04-28 22:34 | -40.87742 | -60.70436 | 36701 ft | 498 kts | 10° |
| 2026-04-28 22:35 | -40.81098 | -60.67809 | 36722 ft | 498 kts | 10° |
| 2026-04-28 22:35 | -40.74457 | -60.65190 | 36722 ft | 499 kts | 10° |
| 2026-04-28 22:36 | -40.67807 | -60.62574 | 36707 ft | 499 kts | 10° |
| 2026-04-28 22:36 | -40.61149 | -60.59959 | 36728 ft | 499 kts | 10° |
| 2026-04-28 22:37 | -40.54482 | -60.57346 | 36736 ft | 500 kts | 10° |
| 2026-04-28 22:37 | -40.47808 | -60.54729 | 36737 ft | 501 kts | 11° |
| 2026-04-28 22:38 | -40.41152 | -60.51945 | 36736 ft | 503 kts | 12° |
| 2026-04-28 22:38 | -40.34501 | -60.49084 | 36747 ft | 503 kts | 12° |
| 2026-04-28 22:39 | -40.27846 | -60.46239 | 36749 ft | 503 kts | 11° |
| 2026-04-28 22:39 | -40.21175 | -60.43422 | 36743 ft | 504 kts | 12° |
| 2026-04-28 22:40 | -40.14493 | -60.40605 | 36754 ft | 505 kts | 12° |
| 2026-04-28 22:40 | -40.07801 | -60.37792 | 36763 ft | 506 kts | 12° |
| 2026-04-28 22:41 | -40.01099 | -60.34980 | 36742 ft | 507 kts | 12° |
| 2026-04-28 22:41 | -39.94382 | -60.32168 | 36769 ft | 507 kts | 12° |
| 2026-04-28 22:42 | -39.87655 | -60.29357 | 36768 ft | 508 kts | 12° |
| 2026-04-28 22:42 | -39.80919 | -60.26549 | 36747 ft | 509 kts | 12° |
| 2026-04-28 22:43 | -39.74175 | -60.23742 | 36773 ft | 509 kts | 12° |
| 2026-04-28 22:43 | -39.67425 | -60.20939 | 36778 ft | 510 kts | 12° |
| 2026-04-28 22:44 | -39.60672 | -60.18140 | 36778 ft | 510 kts | 12° |
| 2026-04-28 22:44 | -39.53903 | -60.15347 | 36774 ft | 510 kts | 12° |
| 2026-04-28 22:45 | -39.47126 | -60.12547 | 36784 ft | 511 kts | 12° |
| 2026-04-28 22:45 | -39.40344 | -60.09751 | 36789 ft | 512 kts | 12° |
| 2026-04-28 22:46 | -39.33553 | -60.06959 | 36780 ft | 512 kts | 12° |
| 2026-04-28 22:46 | -39.26756 | -60.04172 | 36796 ft | 513 kts | 12° |
| 2026-04-28 22:47 | -39.19942 | -60.01383 | 36795 ft | 514 kts | 12° |
| 2026-04-28 22:47 | -39.13121 | -59.98596 | 36801 ft | 515 kts | 12° |
| 2026-04-28 22:48 | -39.06289 | -59.95811 | 36805 ft | 515 kts | 12° |
| 2026-04-28 22:48 | -38.99456 | -59.93031 | 36805 ft | 515 kts | 12° |
| 2026-04-28 22:49 | -38.92622 | -59.90255 | 36806 ft | 515 kts | 12° |
| 2026-04-28 22:49 | -38.85786 | -59.87487 | 36810 ft | 515 kts | 12° |
| 2026-04-28 22:50 | -38.78949 | -59.84722 | 36817 ft | 516 kts | 12° |
| 2026-04-28 22:50 | -38.72102 | -59.81957 | 36824 ft | 516 kts | 12° |
| 2026-04-28 22:51 | -38.65245 | -59.79195 | 36811 ft | 517 kts | 12° |
| 2026-04-28 22:51 | -38.58374 | -59.76433 | 36831 ft | 518 kts | 12° |
| 2026-04-28 22:52 | -38.51495 | -59.73674 | 36831 ft | 519 kts | 12° |
| 2026-04-28 22:52 | -38.44600 | -59.70913 | 36816 ft | 520 kts | 12° |
| 2026-04-28 22:53 | -38.37692 | -59.68151 | 36834 ft | 520 kts | 12° |
| 2026-04-28 22:53 | -38.30777 | -59.65393 | 36842 ft | 522 kts | 12° |
| 2026-04-28 22:54 | -38.23841 | -59.62639 | 36847 ft | 522 kts | 12° |
| 2026-04-28 22:54 | -38.16900 | -59.59891 | 36851 ft | 523 kts | 12° |
| 2026-04-28 22:55 | -38.09945 | -59.57143 | 36841 ft | 524 kts | 13° |
| 2026-04-28 22:55 | -38.02985 | -59.54392 | 36859 ft | 524 kts | 13° |
| 2026-04-28 22:56 | -37.96063 | -59.51664 | 36845 ft | 524 kts | 13° |
| 2026-04-28 22:56 | -37.89097 | -59.48924 | 36856 ft | 525 kts | 13° |
| 2026-04-28 22:57 | -37.82120 | -59.46186 | 36867 ft | 525 kts | 13° |
| 2026-04-28 22:57 | -37.75138 | -59.43451 | 36845 ft | 525 kts | 13° |
| 2026-04-28 22:58 | -37.68157 | -59.40721 | 36870 ft | 525 kts | 13° |
| 2026-04-28 22:58 | -37.61170 | -59.37995 | 36872 ft | 526 kts | 13° |
| 2026-04-28 22:59 | -37.54183 | -59.35275 | 36869 ft | 526 kts | 13° |
| 2026-04-28 22:59 | -37.47182 | -59.32554 | 36882 ft | 526 kts | 13° |
| 2026-04-28 23:00 | -37.40135 | -59.29822 | 36888 ft | 527 kts | 13° |
| 2026-04-28 23:00 | -37.33173 | -59.27124 | 36893 ft | 527 kts | 13° |
| 2026-04-28 23:01 | -37.26159 | -59.24412 | 36856 ft | 527 kts | 14° |
| 2026-04-28 23:01 | -37.19198 | -59.21471 | 36858 ft | 529 kts | 19° |
| 2026-04-28 23:02 | -37.12407 | -59.17860 | 36862 ft | 530 kts | 21° |
| 2026-04-28 23:02 | -37.05649 | -59.14150 | 36853 ft | 530 kts | 21° |
| 2026-04-28 23:03 | -36.98871 | -59.10517 | 36887 ft | 530 kts | 21° |
| 2026-04-28 23:03 | -36.92078 | -59.06941 | 36907 ft | 530 kts | 21° |
| 2026-04-28 23:04 | -36.85282 | -59.03384 | 36918 ft | 530 kts | 21° |
| 2026-04-28 23:04 | -36.75049 | -58.98034 | 36255 ft | 536 kts | 21° |
| 2026-04-28 23:05 | -36.71619 | -58.96242 | 35686 ft | 533 kts | 21° |
| 2026-04-28 23:05 | -36.68204 | -58.94458 | 35038 ft | 532 kts | 21° |
| 2026-04-28 23:05 | -36.64796 | -58.92680 | 34389 ft | 531 kts | 21° |
| 2026-04-28 23:05 | -36.61391 | -58.90906 | 33707 ft | 530 kts | 21° |
| 2026-04-28 23:06 | -36.58010 | -58.89145 | 33125 ft | 525 kts | 21° |
| 2026-04-28 23:06 | -36.55783 | -58.87986 | 32633 ft | 523 kts | 21° |
| 2026-04-28 23:06 | -36.52408 | -58.86232 | 31736 ft | 526 kts | 21° |
| 2026-04-28 23:06 | -36.49039 | -58.84483 | 30985 ft | 525 kts | 20° |
| 2026-04-28 23:07 | -36.45673 | -58.82736 | 30205 ft | 524 kts | 20° |
| 2026-04-28 23:07 | -36.42310 | -58.80994 | 29308 ft | 523 kts | 20° |
| 2026-04-28 23:07 | -36.38958 | -58.79259 | 28387 ft | 521 kts | 20° |
| 2026-04-28 23:07 | -36.35617 | -58.77531 | 27490 ft | 520 kts | 20° |
| 2026-04-28 23:08 | -36.32281 | -58.75807 | 26529 ft | 519 kts | 20° |
| 2026-04-28 23:08 | -36.28948 | -58.74086 | 25572 ft | 519 kts | 20° |
| 2026-04-28 23:08 | -36.25615 | -58.72367 | 24682 ft | 518 kts | 20° |
| 2026-04-28 23:08 | -36.22322 | -58.70669 | 24028 ft | 509 kts | 20° |
| 2026-04-28 23:09 | -36.19059 | -58.68987 | 23363 ft | 503 kts | 20° |
| 2026-04-28 23:09 | -36.15849 | -58.67334 | 22452 ft | 499 kts | 20° |
| 2026-04-28 23:09 | -36.12676 | -58.65703 | 21776 ft | 490 kts | 19° |
| 2026-04-28 23:09 | -36.09528 | -58.64087 | 21013 ft | 486 kts | 19° |
| 2026-04-28 23:10 | -36.06431 | -58.62497 | 20292 ft | 480 kts | 19° |
| 2026-04-28 23:10 | -36.03369 | -58.60928 | 19626 ft | 474 kts | 19° |
| 2026-04-28 23:10 | -36.00343 | -58.59378 | 18954 ft | 468 kts | 19° |
| 2026-04-28 23:10 | -35.97343 | -58.57843 | 18272 ft | 464 kts | 19° |
| 2026-04-28 23:11 | -35.94374 | -58.56326 | 17509 ft | 460 kts | 19° |
| 2026-04-28 23:11 | -35.91436 | -58.54824 | 16803 ft | 454 kts | 19° |
| 2026-04-28 23:11 | -35.88531 | -58.53341 | 16125 ft | 449 kts | 19° |
| 2026-04-28 23:11 | -35.85667 | -58.51880 | 15466 ft | 443 kts | 19° |
| 2026-04-28 23:12 | -35.82836 | -58.50437 | 14817 ft | 438 kts | 19° |
| 2026-04-28 23:12 | -35.80038 | -58.49012 | 14167 ft | 433 kts | 18° |
| 2026-04-28 23:12 | -35.77275 | -58.47605 | 13509 ft | 428 kts | 18° |
| 2026-04-28 23:12 | -35.74488 | -58.46427 | 12789 ft | 418 kts | 6° |
| 2026-04-28 23:13 | -35.71657 | -58.46271 | 12244 ft | 402 kts | 354° |
| 2026-04-28 23:13 | -35.68852 | -58.46275 | 11994 ft | 402 kts | 356° |
| 2026-04-28 23:13 | -35.66107 | -58.46219 | 11930 ft | 387 kts | 356° |
| 2026-04-28 23:13 | -35.63470 | -58.46139 | 11918 ft | 371 kts | 356° |
| 2026-04-28 23:14 | -35.60953 | -58.46055 | 11912 ft | 353 kts | 356° |
| 2026-04-28 23:14 | -35.58556 | -58.45975 | 11902 ft | 336 kts | 356° |
| 2026-04-28 23:14 | -35.56273 | -58.45902 | 11915 ft | 321 kts | 355° |
| 2026-04-28 23:14 | -35.54092 | -58.45834 | 11913 ft | 307 kts | 355° |
| 2026-04-28 23:15 | -35.52006 | -58.45771 | 11909 ft | 293 kts | 355° |
| 2026-04-28 23:15 | -35.50010 | -58.45711 | 11914 ft | 280 kts | 355° |
| 2026-04-28 23:15 | -35.48105 | -58.45653 | 11910 ft | 268 kts | 354° |
| 2026-04-28 23:15 | -35.46285 | -58.45596 | 11909 ft | 256 kts | 354° |
| 2026-04-28 23:16 | -35.44533 | -58.45542 | 11917 ft | 250 kts | 354° |
| 2026-04-28 23:16 | -35.42780 | -58.45493 | 11938 ft | 255 kts | 354° |
| 2026-04-28 23:16 | -35.40978 | -58.45448 | 11946 ft | 262 kts | 354° |
| 2026-04-28 23:16 | -35.39161 | -58.45400 | 11902 ft | 259 kts | 354° |
| 2026-04-28 23:17 | -35.37370 | -58.45350 | 11638 ft | 256 kts | 354° |
| 2026-04-28 23:17 | -35.35588 | -58.45301 | 11161 ft | 259 kts | 354° |
| 2026-04-28 23:17 | -35.33717 | -58.45258 | 10223 ft | 281 kts | 354° |
| 2026-04-28 23:17 | -35.31695 | -58.45212 | 9234 ft | 300 kts | 355° |
| 2026-04-28 23:18 | -35.29590 | -58.45156 | 8542 ft | 304 kts | 356° |
| 2026-04-28 23:18 | -35.27490 | -58.45093 | 8046 ft | 300 kts | 356° |
| 2026-04-28 23:18 | -35.25413 | -58.45031 | 7557 ft | 296 kts | 356° |
| 2026-04-28 23:18 | -35.23359 | -58.44971 | 7051 ft | 294 kts | 356° |
| 2026-04-28 23:19 | -35.21327 | -58.44914 | 6578 ft | 290 kts | 356° |
| 2026-04-28 23:19 | -35.19324 | -58.44858 | 6132 ft | 286 kts | 356° |
| 2026-04-28 23:19 | -35.17358 | -58.44804 | 5779 ft | 279 kts | 356° |
| 2026-04-28 23:19 | -35.15444 | -58.44751 | 5453 ft | 271 kts | 356° |
| 2026-04-28 23:20 | -35.13575 | -58.44701 | 5258 ft | 265 kts | 356° |
| 2026-04-28 23:20 | -35.11760 | -58.44651 | 5139 ft | 258 kts | 356° |
| 2026-04-28 23:20 | -35.09992 | -58.44602 | 5019 ft | 250 kts | 356° |
| 2026-04-28 23:20 | -35.08279 | -58.44565 | 4887 ft | 242 kts | 353° |
| 2026-04-28 23:21 | -35.06638 | -58.44909 | 4601 ft | 237 kts | 340° |
| 2026-04-28 23:21 | -35.05033 | -58.45401 | 4296 ft | 238 kts | 342° |
| 2026-04-28 23:21 | -35.03435 | -58.45857 | 3976 ft | 235 kts | 342° |
| 2026-04-28 23:21 | -35.01849 | -58.46291 | 3729 ft | 231 kts | 344° |
| 2026-04-28 23:22 | -35.00295 | -58.46681 | 3424 ft | 226 kts | 342° |
| 2026-04-28 23:22 | -34.98791 | -58.47150 | 3128 ft | 220 kts | 340° |
| 2026-04-28 23:22 | -34.97331 | -58.47653 | 2829 ft | 216 kts | 339° |
| 2026-04-28 23:22 | -34.95913 | -58.48147 | 2537 ft | 207 kts | 340° |
| 2026-04-28 23:23 | -34.94576 | -58.48613 | 2272 ft | 193 kts | 340° |
| 2026-04-28 23:23 | -34.93324 | -58.49048 | 2028 ft | 182 kts | 340° |
| 2026-04-28 23:23 | -34.92132 | -58.49463 | 1786 ft | 173 kts | 340° |
| 2026-04-28 23:23 | -34.91017 | -58.49850 | 1575 ft | 160 kts | 340° |
| 2026-04-28 23:24 | -34.89987 | -58.50209 | 1352 ft | 148 kts | 340° |
| 2026-04-28 23:24 | -34.89051 | -58.50534 | 1163 ft | 135 kts | 340° |
| 2026-04-28 23:24 | -34.88169 | -58.50842 | 1003 ft | 135 kts | 341° |
| 2026-04-28 23:24 | -34.87254 | -58.51163 | 884 ft | 135 kts | 342° |
| 2026-04-28 23:25 | -34.86347 | -58.51490 | 712 ft | 137 kts | 343° |
| 2026-04-28 23:25 | -34.85418 | -58.51813 | 545 ft | 140 kts | 344° |
| 2026-04-28 23:25 | -34.84491 | -58.52138 | 361 ft | 138 kts | 346° |
| 2026-04-28 23:25 | -34.83559 | -58.52452 | 200 ft | 141 kts | 345° |
| 2026-04-28 23:26 | -34.82658 | -58.52763 | 84 ft | 124 kts | 346° |
| 2026-04-28 23:26 | -34.81943 | -58.53008 | 80 ft | 86 kts | 344° |
| 2026-04-28 23:26 | -34.81509 | -58.53160 | 82 ft | 48 kts | 344° |
| 2026-04-28 23:26 | -34.81231 | -58.53255 | 88 ft | 10 kts | 342° |
| 2026-04-28 23:27 | -34.81178 | -58.53309 | 83 ft | 12 kts | 298° |
| 2026-04-28 23:27 | -34.81166 | -58.53422 | 77 ft | 9 kts | 274° |
| 2026-04-28 23:27 | -34.81166 | -58.53424 | 77 ft | 0 kts | 274° |
| 2026-04-28 23:28 | -34.81165 | -58.53437 | 76 ft | 7 kts | 274° |
| 2026-04-28 23:28 | -34.81161 | -58.53553 | 72 ft | 17 kts | 262° |
| 2026-04-28 23:28 | -34.81201 | -58.53651 | 74 ft | 12 kts | 237° |
| 2026-04-28 23:28 | -34.81242 | -58.53728 | 70 ft | 6 kts | 237° |
| 2026-04-28 23:29 | -34.81249 | -58.53741 | 74 ft | 0 kts | 237° |
| 2026-04-28 23:29 | -34.81251 | -58.53745 | 74 ft | 0 kts | 237° |